sensor_id;sensor_type;location;lat;lon;timestamp;pressure;altitude;pressure_sealevel;temperature;humidity
65800;BME280;52544;48.116;11.660;2023-09-07T00:02:18;95952.56;;;15.99;100.00
65800;BME280;52544;48.116;11.660;2023-09-07T00:04:43;95951.91;;;15.97;100.00
65800;BME280;52544;48.116;11.660;2023-09-07T00:07:08;95953.34;;;15.92;100.00
65800;BME280;52544;48.116;11.660;2023-09-07T00:09:34;95958.84;;;15.90;100.00
65800;BME280;52544;48.116;11.660;2023-09-07T00:12:00;95961.28;;;15.84;100.00
65800;BME280;52544;48.116;11.660;2023-09-07T00:14:25;95958.94;;;15.81;100.00
65800;BME280;52544;48.116;11.660;2023-09-07T00:16:51;95956.56;;;15.78;100.00
65800;BME280;52544;48.116;11.660;2023-09-07T00:19:16;95960.38;;;15.75;100.00
65800;BME280;52544;48.116;11.660;2023-09-07T00:21:41;95950.53;;;15.75;100.00
65800;BME280;52544;48.116;11.660;2023-09-07T00:24:07;95952.34;;;15.75;100.00
65800;BME280;52544;48.116;11.660;2023-09-07T00:26:32;95948.84;;;15.74;100.00
65800;BME280;52544;48.116;11.660;2023-09-07T00:28:58;95951.81;;;15.71;100.00
65800;BME280;52544;48.116;11.660;2023-09-07T00:31:24;95945.97;;;15.68;100.00
65800;BME280;52544;48.116;11.660;2023-09-07T00:33:50;95947.13;;;15.65;100.00
65800;BME280;52544;48.116;11.660;2023-09-07T00:36:15;95946.53;;;15.62;100.00
65800;BME280;52544;48.116;11.660;2023-09-07T00:38:40;95950.22;;;15.61;100.00
65800;BME280;52544;48.116;11.660;2023-09-07T00:41:06;95944.03;;;15.60;100.00
65800;BME280;52544;48.116;11.660;2023-09-07T00:43:32;95940.66;;;15.58;100.00
65800;BME280;52544;48.116;11.660;2023-09-07T00:45:57;95950.50;;;15.58;100.00
65800;BME280;52544;48.116;11.660;2023-09-07T00:48:23;95948.69;;;15.58;100.00
65800;BME280;52544;48.116;11.660;2023-09-07T00:50:49;95958.81;;;15.55;100.00
65800;BME280;52544;48.116;11.660;2023-09-07T00:53:14;95957.13;;;15.54;100.00
65800;BME280;52544;48.116;11.660;2023-09-07T00:55:40;95955.94;;;15.48;100.00
65800;BME280;52544;48.116;11.660;2023-09-07T00:58:05;95955.94;;;15.48;100.00
65800;BME280;52544;48.116;11.660;2023-09-07T01:00:32;95956.75;;;15.48;100.00
65800;BME280;52544;48.116;11.660;2023-09-07T01:02:57;95952.44;;;15.47;100.00
65800;BME280;52544;48.116;11.660;2023-09-07T01:05:30;95952.56;;;15.46;100.00
65800;BME280;52544;48.116;11.660;2023-09-07T01:08:00;95952.50;;;15.38;100.00
65800;BME280;52544;48.116;11.660;2023-09-07T01:10:29;95951.81;;;15.36;100.00
65800;BME280;52544;48.116;11.660;2023-09-07T01:12:54;95948.59;;;15.32;100.00
65800;BME280;52544;48.116;11.660;2023-09-07T01:15:19;95946.78;;;15.33;100.00
65800;BME280;52544;48.116;11.660;2023-09-07T01:17:45;95956.06;;;15.29;100.00
65800;BME280;52544;48.116;11.660;2023-09-07T01:20:12;95950.72;;;15.29;100.00
65800;BME280;52544;48.116;11.660;2023-09-07T01:22:39;95951.06;;;15.25;100.00
65800;BME280;52544;48.116;11.660;2023-09-07T01:25:06;95950.06;;;15.27;100.00
65800;BME280;52544;48.116;11.660;2023-09-07T01:27:33;95946.84;;;15.23;100.00
65800;BME280;52544;48.116;11.660;2023-09-07T01:29:58;95944.34;;;15.21;100.00
65800;BME280;52544;48.116;11.660;2023-09-07T01:32:23;95940.97;;;15.19;100.00
65800;BME280;52544;48.116;11.660;2023-09-07T01:34:53;95942.81;;;15.19;100.00
65800;BME280;52544;48.116;11.660;2023-09-07T01:37:21;95943.94;;;15.16;100.00
65800;BME280;52544;48.116;11.660;2023-09-07T01:39:46;95944.91;;;15.15;100.00
65800;BME280;52544;48.116;11.660;2023-09-07T01:42:12;95943.09;;;15.16;100.00
65800;BME280;52544;48.116;11.660;2023-09-07T01:44:37;95944.09;;;15.15;100.00
65800;BME280;52544;48.116;11.660;2023-09-07T01:47:03;95945.25;;;15.12;100.00
65800;BME280;52544;48.116;11.660;2023-09-07T01:49:29;95946.53;;;15.08;100.00
65800;BME280;52544;48.116;11.660;2023-09-07T01:51:55;95946.13;;;15.03;100.00
65800;BME280;52544;48.116;11.660;2023-09-07T01:54:23;95939.03;;;14.94;100.00
65800;BME280;52544;48.116;11.660;2023-09-07T01:56:49;95938.47;;;14.90;100.00
65800;BME280;52544;48.116;11.660;2023-09-07T01:59:14;95931.47;;;14.89;100.00
65800;BME280;52544;48.116;11.660;2023-09-07T02:01:40;95934.97;;;14.90;100.00
65800;BME280;52544;48.116;11.660;2023-09-07T02:04:05;95937.34;;;14.93;100.00
65800;BME280;52544;48.116;11.660;2023-09-07T02:06:31;95932.69;;;14.95;100.00
65800;BME280;52544;48.116;11.660;2023-09-07T02:08:56;95934.41;;;14.96;100.00
65800;BME280;52544;48.116;11.660;2023-09-07T02:11:22;95948.41;;;14.98;100.00
65800;BME280;52544;48.116;11.660;2023-09-07T02:13:48;95936.34;;;14.94;100.00
65800;BME280;52544;48.116;11.660;2023-09-07T02:16:13;95941.97;;;14.91;100.00
65800;BME280;52544;48.116;11.660;2023-09-07T02:18:39;95935.97;;;14.89;100.00
65800;BME280;52544;48.116;11.660;2023-09-07T02:21:11;95946.09;;;14.85;100.00
65800;BME280;52544;48.116;11.660;2023-09-07T02:23:36;95941.75;;;14.84;100.00
65800;BME280;52544;48.116;11.660;2023-09-07T02:26:02;95936.41;;;14.84;100.00
65800;BME280;52544;48.116;11.660;2023-09-07T02:28:28;95936.59;;;14.83;100.00
65800;BME280;52544;48.116;11.660;2023-09-07T02:30:54;95944.88;;;14.80;100.00
65800;BME280;52544;48.116;11.660;2023-09-07T02:33:19;95950.47;;;14.77;100.00
65800;BME280;52544;48.116;11.660;2023-09-07T02:35:45;95949.38;;;14.69;100.00
65800;BME280;52544;48.116;11.660;2023-09-07T02:38:10;95945.75;;;14.70;100.00
65800;BME280;52544;48.116;11.660;2023-09-07T02:40:45;95950.38;;;14.68;100.00
65800;BME280;52544;48.116;11.660;2023-09-07T02:43:11;95946.19;;;14.66;100.00
65800;BME280;52544;48.116;11.660;2023-09-07T02:45:37;95944.09;;;14.60;100.00
65800;BME280;52544;48.116;11.660;2023-09-07T02:48:03;95946.94;;;14.58;100.00
65800;BME280;52544;48.116;11.660;2023-09-07T02:50:30;95939.38;;;14.54;100.00
65800;BME280;52544;48.116;11.660;2023-09-07T02:52:55;95950.88;;;14.54;100.00
65800;BME280;52544;48.116;11.660;2023-09-07T02:55:21;95947.50;;;14.52;100.00
65800;BME280;52544;48.116;11.660;2023-09-07T02:57:46;95939.09;;;14.47;100.00
65800;BME280;52544;48.116;11.660;2023-09-07T03:00:12;95940.75;;;14.48;100.00
65800;BME280;52544;48.116;11.660;2023-09-07T03:02:37;95941.06;;;14.45;100.00
65800;BME280;52544;48.116;11.660;2023-09-07T03:05:03;95937.84;;;14.41;100.00
65800;BME280;52544;48.116;11.660;2023-09-07T03:07:33;95943.19;;;14.41;100.00
65800;BME280;52544;48.116;11.660;2023-09-07T03:09:59;95938.56;;;14.34;100.00
65800;BME280;52544;48.116;11.660;2023-09-07T03:12:24;95940.56;;;14.32;100.00
65800;BME280;52544;48.116;11.660;2023-09-07T03:14:50;95945.88;;;14.32;100.00
65800;BME280;52544;48.116;11.660;2023-09-07T03:17:18;95941.53;;;14.31;100.00
65800;BME280;52544;48.116;11.660;2023-09-07T03:19:43;95941.94;;;14.26;100.00
65800;BME280;52544;48.116;11.660;2023-09-07T03:22:09;95942.28;;;14.23;100.00
65800;BME280;52544;48.116;11.660;2023-09-07T03:24:35;95944.78;;;14.24;100.00
65800;BME280;52544;48.116;11.660;2023-09-07T03:27:00;95942.28;;;14.23;100.00
65800;BME280;52544;48.116;11.660;2023-09-07T03:29:26;95940.88;;;14.19;100.00
65800;BME280;52544;48.116;11.660;2023-09-07T03:31:51;95947.31;;;14.16;100.00
65800;BME280;52544;48.116;11.660;2023-09-07T03:34:17;95941.59;;;14.11;100.00
65800;BME280;52544;48.116;11.660;2023-09-07T03:36:42;95950.84;;;14.07;100.00
65800;BME280;52544;48.116;11.660;2023-09-07T03:39:07;95942.88;;;14.07;100.00
65800;BME280;52544;48.116;11.660;2023-09-07T03:41:34;95937.66;;;14.06;100.00
65800;BME280;52544;48.116;11.660;2023-09-07T03:43:59;95955.47;;;14.05;100.00
65800;BME280;52544;48.116;11.660;2023-09-07T03:46:26;95951.72;;;13.98;100.00
65800;BME280;52544;48.116;11.660;2023-09-07T03:48:51;95951.00;;;13.96;100.00
65800;BME280;52544;48.116;11.660;2023-09-07T03:51:17;95956.03;;;13.99;100.00
65800;BME280;52544;48.116;11.660;2023-09-07T03:53:43;95959.13;;;13.94;100.00
65800;BME280;52544;48.116;11.660;2023-09-07T03:56:08;95956.59;;;13.93;100.00
65800;BME280;52544;48.116;11.660;2023-09-07T03:58:33;95952.41;;;13.90;100.00
65800;BME280;52544;48.116;11.660;2023-09-07T04:00:59;95942.88;;;13.88;100.00
65800;BME280;52544;48.116;11.660;2023-09-07T04:03:25;95951.84;;;13.87;100.00
65800;BME280;52544;48.116;11.660;2023-09-07T04:05:51;95946.81;;;13.84;100.00
65800;BME280;52544;48.116;11.660;2023-09-07T04:08:16;95951.56;;;13.80;100.00
65800;BME280;52544;48.116;11.660;2023-09-07T04:10:42;95951.31;;;13.73;100.00
65800;BME280;52544;48.116;11.660;2023-09-07T04:13:07;95961.97;;;13.73;100.00
65800;BME280;52544;48.116;11.660;2023-09-07T04:15:43;95956.63;;;13.73;100.00
65800;BME280;52544;48.116;11.660;2023-09-07T04:18:10;95967.53;;;13.70;100.00
65800;BME280;52544;48.116;11.660;2023-09-07T04:20:38;95959.16;;;13.65;100.00
65800;BME280;52544;48.116;11.660;2023-09-07T04:23:04;95961.09;;;13.63;100.00
65800;BME280;52544;48.116;11.660;2023-09-07T04:25:30;95965.75;;;13.61;100.00
65800;BME280;52544;48.116;11.660;2023-09-07T04:27:55;95959.69;;;13.59;100.00
65800;BME280;52544;48.116;11.660;2023-09-07T04:30:22;95967.00;;;13.57;100.00
65800;BME280;52544;48.116;11.660;2023-09-07T04:32:48;95964.75;;;13.53;100.00
65800;BME280;52544;48.116;11.660;2023-09-07T04:35:13;95971.91;;;13.52;100.00
65800;BME280;52544;48.116;11.660;2023-09-07T04:37:42;95968.41;;;13.52;100.00
65800;BME280;52544;48.116;11.660;2023-09-07T04:40:08;95967.84;;;13.48;100.00
65800;BME280;52544;48.116;11.660;2023-09-07T04:42:34;95970.50;;;13.48;100.00
65800;BME280;52544;48.116;11.660;2023-09-07T04:44:59;95974.00;;;13.48;100.00
65800;BME280;52544;48.116;11.660;2023-09-07T04:47:25;95974.25;;;13.45;100.00
65800;BME280;52544;48.116;11.660;2023-09-07T04:49:50;95977.06;;;13.44;100.00
65800;BME280;52544;48.116;11.660;2023-09-07T04:52:16;95972.75;;;13.43;100.00
65800;BME280;52544;48.116;11.660;2023-09-07T04:54:41;95980.84;;;13.41;100.00
65800;BME280;52544;48.116;11.660;2023-09-07T04:57:08;95988.38;;;13.46;100.00
65800;BME280;52544;48.116;11.660;2023-09-07T04:59:33;95982.81;;;13.39;100.00
65800;BME280;52544;48.116;11.660;2023-09-07T05:01:59;95979.44;;;13.37;100.00
65800;BME280;52544;48.116;11.660;2023-09-07T05:04:26;95980.84;;;13.41;100.00
65800;BME280;52544;48.116;11.660;2023-09-07T05:06:51;95980.00;;;13.41;100.00
65800;BME280;52544;48.116;11.660;2023-09-07T05:09:17;95976.66;;;13.39;100.00
65800;BME280;52544;48.116;11.660;2023-09-07T05:11:42;95980.97;;;13.40;100.00
65800;BME280;52544;48.116;11.660;2023-09-07T05:14:07;95981.25;;;13.37;100.00
65800;BME280;52544;48.116;11.660;2023-09-07T05:16:33;95978.75;;;13.35;100.00
65800;BME280;52544;48.116;11.660;2023-09-07T05:18:58;95978.19;;;13.41;100.00
65800;BME280;52544;48.116;11.660;2023-09-07T05:21:24;95979.72;;;13.44;100.00
65800;BME280;52544;48.116;11.660;2023-09-07T05:23:49;95982.13;;;13.47;100.00
65800;BME280;52544;48.116;11.660;2023-09-07T05:26:20;95978.19;;;13.51;100.00
65800;BME280;52544;48.116;11.660;2023-09-07T05:28:46;95983.22;;;13.54;100.00
65800;BME280;52544;48.116;11.660;2023-09-07T05:31:11;95978.47;;;13.58;100.00
65800;BME280;52544;48.116;11.660;2023-09-07T05:33:37;95980.69;;;13.62;100.00
65800;BME280;52544;48.116;11.660;2023-09-07T05:36:02;95990.81;;;13.68;100.00
65800;BME280;52544;48.116;11.660;2023-09-07T05:38:28;95999.19;;;13.73;100.00
65800;BME280;52544;48.116;11.660;2023-09-07T05:40:53;95998.78;;;13.78;100.00
65800;BME280;52544;48.116;11.660;2023-09-07T05:43:20;95994.69;;;13.84;100.00
65800;BME280;52544;48.116;11.660;2023-09-07T05:45:46;95997.75;;;13.89;100.00
65800;BME280;52544;48.116;11.660;2023-09-07T05:48:11;95995.81;;;13.91;100.00
65800;BME280;52544;48.116;11.660;2023-09-07T05:50:37;95997.38;;;13.93;100.00
65800;BME280;52544;48.116;11.660;2023-09-07T05:53:03;95999.72;;;13.96;100.00
65800;BME280;52544;48.116;11.660;2023-09-07T05:55:29;96005.34;;;14.03;100.00
65800;BME280;52544;48.116;11.660;2023-09-07T05:57:55;96007.28;;;14.11;100.00
65800;BME280;52544;48.116;11.660;2023-09-07T06:00:21;96008.53;;;14.16;100.00
65800;BME280;52544;48.116;11.660;2023-09-07T06:02:46;96005.00;;;14.25;100.00
65800;BME280;52544;48.116;11.660;2023-09-07T06:05:13;96003.47;;;14.33;100.00
65800;BME280;52544;48.116;11.660;2023-09-07T06:07:38;96006.53;;;14.38;100.00
65800;BME280;52544;48.116;11.660;2023-09-07T06:10:04;96005.66;;;14.47;100.00
65800;BME280;52544;48.116;11.660;2023-09-07T06:12:33;96007.34;;;14.58;100.00
65800;BME280;52544;48.116;11.660;2023-09-07T06:15:02;96007.16;;;14.69;100.00
65800;BME280;52544;48.116;11.660;2023-09-07T06:17:28;96012.47;;;14.79;100.00
65800;BME280;52544;48.116;11.660;2023-09-07T06:19:54;96007.91;;;14.89;100.00
65800;BME280;52544;48.116;11.660;2023-09-07T06:22:19;96007.03;;;14.98;100.00
65800;BME280;52544;48.116;11.660;2023-09-07T06:24:45;96003.03;;;15.12;100.00
65800;BME280;52544;48.116;11.660;2023-09-07T06:27:10;96009.53;;;15.27;100.00
65800;BME280;52544;48.116;11.660;2023-09-07T06:29:35;96004.53;;;15.42;100.00
65800;BME280;52544;48.116;11.660;2023-09-07T06:32:01;96004.03;;;15.56;100.00
65800;BME280;52544;48.116;11.660;2023-09-07T06:34:26;96003.50;;;15.70;100.00
65800;BME280;52544;48.116;11.660;2023-09-07T06:36:52;96005.66;;;15.85;100.00
65800;BME280;52544;48.116;11.660;2023-09-07T06:39:17;96001.75;;;15.97;100.00
65800;BME280;52544;48.116;11.660;2023-09-07T06:41:45;96004.19;;;16.08;100.00
65800;BME280;52544;48.116;11.660;2023-09-07T06:44:11;95999.28;;;16.21;100.00
65800;BME280;52544;48.116;11.660;2023-09-07T06:46:36;96003.53;;;16.32;100.00
65800;BME280;52544;48.116;11.660;2023-09-07T06:49:02;95998.09;;;16.42;100.00
65800;BME280;52544;48.116;11.660;2023-09-07T06:51:30;95994.34;;;16.53;100.00
65800;BME280;52544;48.116;11.660;2023-09-07T06:53:56;95997.88;;;16.61;100.00
65800;BME280;52544;48.116;11.660;2023-09-07T06:56:21;96005.03;;;16.79;100.00
65800;BME280;52544;48.116;11.660;2023-09-07T06:58:47;96004.06;;;16.88;100.00
65800;BME280;52544;48.116;11.660;2023-09-07T07:01:12;95997.09;;;16.95;100.00
65800;BME280;52544;48.116;11.660;2023-09-07T07:03:38;95995.13;;;17.05;100.00
65800;BME280;52544;48.116;11.660;2023-09-07T07:06:03;96001.16;;;17.15;100.00
65800;BME280;52544;48.116;11.660;2023-09-07T07:08:28;95999.34;;;17.24;100.00
65800;BME280;52544;48.116;11.660;2023-09-07T07:10:54;95994.22;;;17.31;100.00
65800;BME280;52544;48.116;11.660;2023-09-07T07:13:20;96002.41;;;17.37;100.00
65800;BME280;52544;48.116;11.660;2023-09-07T07:15:45;96006.81;;;17.46;100.00
65800;BME280;52544;48.116;11.660;2023-09-07T07:18:11;96004.28;;;17.53;100.00
65800;BME280;52544;48.116;11.660;2023-09-07T07:20:38;96008.00;;;17.60;100.00
65800;BME280;52544;48.116;11.660;2023-09-07T07:23:04;96010.38;;;17.71;100.00
65800;BME280;52544;48.116;11.660;2023-09-07T07:25:30;96009.38;;;17.72;100.00
65800;BME280;52544;48.116;11.660;2023-09-07T07:28:01;96012.72;;;17.74;100.00
65800;BME280;52544;48.116;11.660;2023-09-07T07:30:31;96005.03;;;17.80;100.00
65800;BME280;52544;48.116;11.660;2023-09-07T07:32:56;96012.59;;;17.84;100.00
65800;BME280;52544;48.116;11.660;2023-09-07T07:35:22;96022.94;;;17.87;100.00
65800;BME280;52544;48.116;11.660;2023-09-07T07:37:49;96015.75;;;17.96;100.00
65800;BME280;52544;48.116;11.660;2023-09-07T07:40:14;96015.63;;;17.97;100.00
65800;BME280;52544;48.116;11.660;2023-09-07T07:42:40;96014.28;;;18.02;100.00
65800;BME280;52544;48.116;11.660;2023-09-07T07:45:06;96013.44;;;18.09;100.00
65800;BME280;52544;48.116;11.660;2023-09-07T07:47:31;96016.47;;;18.14;100.00
65800;BME280;52544;48.116;11.660;2023-09-07T07:49:57;96011.44;;;18.19;100.00
65800;BME280;52544;48.116;11.660;2023-09-07T07:52:22;96016.09;;;18.26;100.00
65800;BME280;52544;48.116;11.660;2023-09-07T07:54:48;96006.41;;;18.33;100.00
65800;BME280;52544;48.116;11.660;2023-09-07T07:57:13;96012.41;;;18.43;100.00
65800;BME280;52544;48.116;11.660;2023-09-07T07:59:38;96015.25;;;18.49;100.00
65800;BME280;52544;48.116;11.660;2023-09-07T08:02:04;96012.72;;;18.56;100.00
65800;BME280;52544;48.116;11.660;2023-09-07T08:04:31;96006.69;;;18.62;100.00
65800;BME280;52544;48.116;11.660;2023-09-07T08:06:58;96009.91;;;18.74;100.00
65800;BME280;52544;48.116;11.660;2023-09-07T08:09:31;96008.03;;;18.83;100.00
65800;BME280;52544;48.116;11.660;2023-09-07T08:11:57;96001.81;;;18.90;100.00
65800;BME280;52544;48.116;11.660;2023-09-07T08:14:24;95997.59;;;18.96;100.00
65800;BME280;52544;48.116;11.660;2023-09-07T08:16:49;96001.91;;;19.05;100.00
65800;BME280;52544;48.116;11.660;2023-09-07T08:19:15;96006.25;;;19.14;100.00
65800;BME280;52544;48.116;11.660;2023-09-07T08:21:40;96001.34;;;19.26;100.00
65800;BME280;52544;48.116;11.660;2023-09-07T08:24:08;96000.09;;;19.37;100.00
65800;BME280;52544;48.116;11.660;2023-09-07T08:26:35;96002.38;;;19.48;100.00
65800;BME280;52544;48.116;11.660;2023-09-07T08:29:00;96004.84;;;19.58;100.00
65800;BME280;52544;48.116;11.660;2023-09-07T08:31:40;95997.44;;;19.68;100.00
65800;BME280;52544;48.116;11.660;2023-09-07T08:34:35;96004.25;;;19.79;100.00
65800;BME280;52544;48.116;11.660;2023-09-07T08:37:04;96001.50;;;19.87;100.00
65800;BME280;52544;48.116;11.660;2023-09-07T08:39:33;96006.19;;;19.93;100.00
65800;BME280;52544;48.116;11.660;2023-09-07T08:41:59;95998.06;;;20.01;100.00
65800;BME280;52544;48.116;11.660;2023-09-07T08:44:26;96010.78;;;20.07;100.00
65800;BME280;52544;48.116;11.660;2023-09-07T08:46:52;95992.94;;;20.14;100.00
65800;BME280;52544;48.116;11.660;2023-09-07T08:49:18;95996.53;;;20.21;100.00
65800;BME280;52544;48.116;11.660;2023-09-07T08:51:44;95992.31;;;20.27;100.00
65800;BME280;52544;48.116;11.660;2023-09-07T08:54:11;95996.78;;;20.35;100.00
65800;BME280;52544;48.116;11.660;2023-09-07T08:56:37;95995.03;;;20.42;100.00
65800;BME280;52544;48.116;11.660;2023-09-07T08:59:02;95996.00;;;20.49;100.00
65800;BME280;52544;48.116;11.660;2023-09-07T09:01:29;95997.31;;;20.53;100.00
65800;BME280;52544;48.116;11.660;2023-09-07T09:03:57;95999.94;;;20.61;100.00
65800;BME280;52544;48.116;11.660;2023-09-07T09:06:23;95990.09;;;20.68;100.00
65800;BME280;52544;48.116;11.660;2023-09-07T09:08:50;95998.06;;;20.77;100.00
65800;BME280;52544;48.116;11.660;2023-09-07T09:11:18;95995.31;;;20.85;100.00
65800;BME280;52544;48.116;11.660;2023-09-07T09:13:44;95995.22;;;20.93;100.00
65800;BME280;52544;48.116;11.660;2023-09-07T09:16:10;95991.41;;;21.02;100.00
65800;BME280;52544;48.116;11.660;2023-09-07T09:18:47;95999.03;;;21.13;100.00
65800;BME280;52544;48.116;11.660;2023-09-07T09:21:14;95985.47;;;21.21;100.00
65800;BME280;52544;48.116;11.660;2023-09-07T09:23:40;95987.03;;;21.31;100.00
65800;BME280;52544;48.116;11.660;2023-09-07T09:26:06;95986.97;;;21.39;100.00
65800;BME280;52544;48.116;11.660;2023-09-07T09:28:32;95980.44;;;21.48;100.00
65800;BME280;52544;48.116;11.660;2023-09-07T09:30:59;95983.00;;;21.56;100.00
65800;BME280;52544;48.116;11.660;2023-09-07T09:33:25;95981.88;;;21.65;100.00
65800;BME280;52544;48.116;11.660;2023-09-07T09:35:52;95977.03;;;21.76;100.00
65800;BME280;52544;48.116;11.660;2023-09-07T09:38:18;95978.38;;;21.86;100.00
65800;BME280;52544;48.116;11.660;2023-09-07T09:40:44;95975.19;;;21.98;100.00
65800;BME280;52544;48.116;11.660;2023-09-07T09:43:09;95974.03;;;22.07;100.00
65800;BME280;52544;48.116;11.660;2023-09-07T09:45:37;95972.72;;;22.17;100.00
65800;BME280;52544;48.116;11.660;2023-09-07T09:48:04;95977.56;;;22.29;100.00
65800;BME280;52544;48.116;11.660;2023-09-07T09:50:30;95978.91;;;22.39;100.00
65800;BME280;52544;48.116;11.660;2023-09-07T09:52:56;95970.22;;;22.44;100.00
65800;BME280;52544;48.116;11.660;2023-09-07T09:55:23;95967.84;;;22.56;100.00
65800;BME280;52544;48.116;11.660;2023-09-07T09:57:49;95968.94;;;22.68;100.00
65800;BME280;52544;48.116;11.660;2023-09-07T10:00:15;95963.44;;;22.83;100.00
65800;BME280;52544;48.116;11.660;2023-09-07T10:02:50;95970.81;;;22.95;100.00
65800;BME280;52544;48.116;11.660;2023-09-07T10:05:17;95969.84;;;23.10;100.00
65800;BME280;52544;48.116;11.660;2023-09-07T10:07:44;95969.09;;;23.23;100.00
65800;BME280;52544;48.116;11.660;2023-09-07T10:10:14;95974.16;;;23.39;100.00
65800;BME280;52544;48.116;11.660;2023-09-07T10:12:44;95974.63;;;23.49;100.00
65800;BME280;52544;48.116;11.660;2023-09-07T10:15:21;95973.44;;;23.65;100.00
65800;BME280;52544;48.116;11.660;2023-09-07T10:17:46;95971.59;;;23.79;100.00
65800;BME280;52544;48.116;11.660;2023-09-07T10:20:18;95970.22;;;23.96;100.00
65800;BME280;52544;48.116;11.660;2023-09-07T10:22:44;95965.22;;;24.06;100.00
65800;BME280;52544;48.116;11.660;2023-09-07T10:25:21;95973.16;;;24.28;100.00
65800;BME280;52544;48.116;11.660;2023-09-07T10:27:47;95962.38;;;24.41;100.00
65800;BME280;52544;48.116;11.660;2023-09-07T10:30:12;95960.28;;;24.56;100.00
65800;BME280;52544;48.116;11.660;2023-09-07T10:32:41;95969.44;;;24.68;100.00
65800;BME280;52544;48.116;11.660;2023-09-07T10:35:18;95962.13;;;24.76;100.00
65800;BME280;52544;48.116;11.660;2023-09-07T10:37:45;95959.81;;;24.92;100.00
65800;BME280;52544;48.116;11.660;2023-09-07T10:40:12;95959.16;;;25.10;100.00
65800;BME280;52544;48.116;11.660;2023-09-07T10:42:38;95956.81;;;25.27;100.00
65800;BME280;52544;48.116;11.660;2023-09-07T10:45:15;95950.50;;;25.47;100.00
65800;BME280;52544;48.116;11.660;2023-09-07T10:47:45;95949.63;;;25.59;100.00
65800;BME280;52544;48.116;11.660;2023-09-07T10:50:12;95947.06;;;25.71;100.00
65800;BME280;52544;48.116;11.660;2023-09-07T10:52:41;95953.25;;;25.85;100.00
65800;BME280;52544;48.116;11.660;2023-09-07T10:55:10;95951.09;;;26.00;100.00
65800;BME280;52544;48.116;11.660;2023-09-07T10:57:46;95945.56;;;26.13;98.25
65800;BME280;52544;48.116;11.660;2023-09-07T11:00:13;95949.69;;;26.23;100.00
65800;BME280;52544;48.116;11.660;2023-09-07T11:02:42;95955.44;;;26.33;100.00
65800;BME280;52544;48.116;11.660;2023-09-07T11:05:08;95944.50;;;26.46;100.00
65800;BME280;52544;48.116;11.660;2023-09-07T11:07:34;95954.41;;;26.59;98.69
65800;BME280;52544;48.116;11.660;2023-09-07T11:10:00;95947.72;;;26.61;100.00
65800;BME280;52544;48.116;11.660;2023-09-07T11:12:25;95938.84;;;26.73;98.51
65800;BME280;52544;48.116;11.660;2023-09-07T11:14:51;95948.28;;;26.88;98.81
65800;BME280;52544;48.116;11.660;2023-09-07T11:17:25;95946.50;;;27.01;93.37
65800;BME280;52544;48.116;11.660;2023-09-07T11:19:52;95944.13;;;27.11;94.59
65800;BME280;52544;48.116;11.660;2023-09-07T11:22:36;95949.16;;;27.26;89.85
65800;BME280;52544;48.116;11.660;2023-09-07T11:25:05;95948.34;;;27.25;91.06
65800;BME280;52544;48.116;11.660;2023-09-07T11:27:31;95943.75;;;27.26;95.18
65800;BME280;52544;48.116;11.660;2023-09-07T11:29:57;95933.41;;;27.34;92.13
65800;BME280;52544;48.116;11.660;2023-09-07T11:32:23;95938.13;;;27.39;92.64
65800;BME280;52544;48.116;11.660;2023-09-07T11:34:52;95941.84;;;27.45;90.67
65800;BME280;52544;48.116;11.660;2023-09-07T11:37:22;95944.03;;;27.54;88.95
65800;BME280;52544;48.116;11.660;2023-09-07T11:39:48;95941.75;;;27.51;88.85
65800;BME280;52544;48.116;11.660;2023-09-07T11:42:13;95940.25;;;27.55;90.85
65800;BME280;52544;48.116;11.660;2023-09-07T11:44:39;95944.53;;;27.63;88.00
65800;BME280;52544;48.116;11.660;2023-09-07T11:47:04;95932.16;;;27.67;87.77
65800;BME280;52544;48.116;11.660;2023-09-07T11:49:29;95927.41;;;27.62;90.34
65800;BME280;52544;48.116;11.660;2023-09-07T11:51:57;95930.50;;;27.66;87.57
65800;BME280;52544;48.116;11.660;2023-09-07T11:54:22;95934.78;;;27.74;89.88
65800;BME280;52544;48.116;11.660;2023-09-07T11:56:48;95925.97;;;27.78;90.62
65800;BME280;52544;48.116;11.660;2023-09-07T11:59:13;95932.13;;;27.85;84.50
65800;BME280;52544;48.116;11.660;2023-09-07T12:01:39;95927.38;;;27.81;89.34
65800;BME280;52544;48.116;11.660;2023-09-07T12:04:07;95928.59;;;27.85;87.05
65800;BME280;52544;48.116;11.660;2023-09-07T12:06:32;95924.94;;;27.91;88.17
65800;BME280;52544;48.116;11.660;2023-09-07T12:08:59;95925.78;;;27.92;88.93
65800;BME280;52544;48.116;11.660;2023-09-07T12:11:25;95924.84;;;27.98;87.10
65800;BME280;52544;48.116;11.660;2023-09-07T12:13:50;95916.97;;;28.08;85.21
65800;BME280;52544;48.116;11.660;2023-09-07T12:16:16;95922.25;;;28.03;82.18
65800;BME280;52544;48.116;11.660;2023-09-07T12:18:41;95921.88;;;27.99;83.07
65800;BME280;52544;48.116;11.660;2023-09-07T12:21:07;95913.84;;;27.93;88.09
65800;BME280;52544;48.116;11.660;2023-09-07T12:23:33;95923.88;;;27.92;87.09
65800;BME280;52544;48.116;11.660;2023-09-07T12:25:59;95924.38;;;28.01;83.53
65800;BME280;52544;48.116;11.660;2023-09-07T12:28:26;95923.31;;;28.02;85.12
65800;BME280;52544;48.116;11.660;2023-09-07T12:30:51;95912.94;;;28.10;80.51
65800;BME280;52544;48.116;11.660;2023-09-07T12:33:16;95913.63;;;28.06;79.18
65800;BME280;52544;48.116;11.660;2023-09-07T12:35:42;95912.19;;;28.03;81.47
65800;BME280;52544;48.116;11.660;2023-09-07T12:38:08;95910.88;;;27.94;84.59